Time;durP1;ratioP1;P1;durP2;ratioP2;P2;SDS_P1;SDS_P2;PMS_P1;PMS_P2;Temp;Humidity;BMP_temperature;BMP_pressure;BME280_temperature;BME280_humidity;BME280_pressure;Samples;Min_cycle;Max_cycle;Signal;HPM_P1;HPM_P2
2023/07/31 00:01:13;;;;;;;4.32;2.78;;;;;;;23.19;52.64;101025.69;5032634;28;20046;-36
2023/07/31 00:03:39;;;;;;;4.95;3.20;;;;;;;23.19;52.86;101020.28;5045714;28;20126;-36
2023/07/31 00:06:06;;;;;;;3.65;2.55;;;;;;;23.19;52.49;101007.59;5031219;28;20056;-34
2023/07/31 00:08:33;;;;;;;3.25;2.25;;;;;;;23.19;52.75;101004.91;5036909;28;20041;-35
2023/07/31 00:10:59;;;;;;;4.45;2.65;;;;;;;23.20;52.75;101001.19;5033110;28;20107;-35
2023/07/31 00:13:26;;;;;;;4.07;2.70;;;;;;;23.20;53.04;101000.34;5033370;28;20098;-34
2023/07/31 00:15:52;;;;;;;4.28;2.85;;;;;;;23.20;52.93;101000.34;5026011;28;20103;-35
2023/07/31 00:18:19;;;;;;;5.18;2.97;;;;;;;23.20;52.79;100992.25;5025987;28;20333;-35
2023/07/31 00:20:46;;;;;;;3.80;2.50;;;;;;;23.22;52.47;100998.28;5027820;28;20081;-35
2023/07/31 00:23:12;;;;;;;5.43;3.10;;;;;;;23.21;53.02;100994.75;5028746;28;20509;-35
2023/07/31 00:25:39;;;;;;;6.65;3.28;;;;;;;23.22;52.51;100992.88;5024214;28;20121;-35
2023/07/31 00:28:06;;;;;;;5.45;2.90;;;;;;;23.21;52.83;100983.09;5026407;28;20511;-35
2023/07/31 00:30:32;;;;;;;8.77;3.47;;;;;;;23.21;52.97;100996.63;5026017;28;20046;-35
2023/07/31 00:32:59;;;;;;;4.70;3.03;;;;;;;23.23;52.75;101010.78;5023661;28;20053;-37
2023/07/31 00:35:26;;;;;;;6.90;3.58;;;;;;;23.22;53.00;101014.53;5021560;28;20445;-35
2023/07/31 00:37:52;;;;;;;7.32;3.38;;;;;;;23.22;53.07;101006.41;5027396;28;20053;-36
2023/07/31 00:40:19;;;;;;;6.50;3.50;;;;;;;23.21;53.03;101002.88;5026774;28;20053;-36
2023/07/31 00:42:45;;;;;;;7.15;3.45;;;;;;;23.22;53.14;100992.88;5025835;28;20128;-35
2023/07/31 00:45:12;;;;;;;10.88;4.30;;;;;;;23.22;53.45;101003.69;5025262;28;20049;-36
2023/07/31 00:47:39;;;;;;;10.73;3.53;;;;;;;23.21;53.01;101002.88;5021883;28;20088;-35
2023/07/31 00:50:06;;;;;;;7.03;3.67;;;;;;;23.22;53.08;101006.41;5027813;28;20057;-35
2023/07/31 00:52:33;;;;;;;8.30;3.58;;;;;;;23.21;53.22;101010.16;5022082;28;20334;-36
2023/07/31 00:55:00;;;;;;;7.20;3.92;;;;;;;23.21;53.23;101002.03;5025811;28;20081;-35
2023/07/31 00:57:26;;;;;;;7.57;3.70;;;;;;;23.21;53.42;101004.72;5023870;28;20121;-35
2023/07/31 00:59:53;;;;;;;9.73;4.43;;;;;;;23.21;53.50;100994.75;5022189;28;20433;-35
2023/07/31 01:02:20;;;;;;;6.25;4.10;;;;;;;23.19;53.11;100993.25;5024764;28;20146;-36
2023/07/31 01:04:47;;;;;;;8.27;4.25;;;;;;;23.20;53.20;101003.06;5024053;28;20061;-35
2023/07/31 01:07:27;;;;;;;7.85;3.55;;;;;;;23.19;54.03;100993.25;5023463;28;20119;-35
2023/07/31 01:09:59;;;;;;;6.57;3.58;;;;;;;23.19;53.27;100999.50;5025597;28;20057;-35
2023/07/31 01:12:28;;;;;;;7.90;4.18;;;;;;;23.19;53.66;100990.53;5033307;28;20075;-35
2023/07/31 01:15:01;;;;;;;5.85;3.40;;;;;;;23.18;53.61;100987.00;5027106;28;20049;-34
2023/07/31 01:17:27;;;;;;;8.25;3.88;;;;;;;23.19;53.63;100988.66;5025865;28;20103;-35
2023/07/31 01:19:59;;;;;;;7.85;3.55;;;;;;;23.17;53.52;100985.34;5026282;28;20148;-35
2023/07/31 01:22:34;;;;;;;9.45;3.80;;;;;;;23.19;53.23;100990.53;5026598;28;20096;-35
2023/07/31 01:25:27;;;;;;;8.23;4.05;;;;;;;23.19;53.82;100985.13;5027098;28;20049;-35
2023/07/31 01:28:02;;;;;;;8.45;4.05;;;;;;;23.18;53.85;100976.19;5023602;28;20081;-35
2023/07/31 01:30:35;;;;;;;6.93;3.50;;;;;;;23.19;53.31;100983.25;5022396;28;20084;-35
2023/07/31 01:33:07;;;;;;;9.13;3.47;;;;;;;23.19;53.87;100983.25;5024889;28;20132;-35
2023/07/31 01:35:35;;;;;;;10.32;4.07;;;;;;;23.18;53.55;100981.59;5023603;28;20128;-35
2023/07/31 01:38:03;;;;;;;6.88;3.60;;;;;;;23.18;53.39;100981.59;5026394;28;20083;-35
2023/07/31 01:40:29;;;;;;;8.20;3.40;;;;;;;23.18;53.65;100987.00;5028939;28;20441;-36
2023/07/31 01:42:56;;;;;;;9.65;4.05;;;;;;;23.17;53.28;100985.34;5029680;28;20135;-36
2023/07/31 01:45:22;;;;;;;14.38;4.35;;;;;;;23.17;53.79;100979.09;5032171;28;20049;-35
2023/07/31 01:47:49;;;;;;;11.35;4.43;;;;;;;23.17;53.63;100982.63;5029055;28;20057;-35
2023/07/31 01:50:15;;;;;;;7.70;3.53;;;;;;;23.16;53.35;100978.25;5028441;28;20045;-35
2023/07/31 01:52:42;;;;;;;6.07;3.95;;;;;;;23.16;53.75;100972.84;5031879;28;20099;-35
2023/07/31 01:55:09;;;;;;;7.82;3.92;;;;;;;23.15;53.61;100969.28;5031765;28;20045;-35
2023/07/31 01:57:36;;;;;;;10.73;4.22;;;;;;;23.15;53.50;100963.88;5026904;28;20057;-35
2023/07/31 02:00:04;;;;;;;6.00;3.40;;;;;;;23.15;53.44;100961.16;5034580;28;20158;-35
2023/07/31 02:02:30;;;;;;;8.32;3.70;;;;;;;23.15;54.07;100950.34;5031054;28;20140;-35
2023/07/31 02:04:57;;;;;;;7.57;3.38;;;;;;;23.14;53.82;100940.56;5031831;28;20336;-35
2023/07/31 02:07:24;;;;;;;7.15;3.60;;;;;;;23.14;53.38;100943.25;5030198;28;20060;-35
2023/07/31 02:09:50;;;;;;;9.57;3.80;;;;;;;23.14;53.46;100943.25;5031662;28;20091;-35
2023/07/31 02:12:17;;;;;;;7.50;3.75;;;;;;;23.14;53.58;100934.31;5030738;28;20131;-35
2023/07/31 02:14:44;;;;;;;8.55;4.15;;;;;;;23.14;53.75;100928.91;5028178;28;20045;-36
2023/07/31 02:17:10;;;;;;;6.05;3.55;;;;;;;23.13;53.42;100930.78;5026390;28;20080;-36
2023/07/31 02:19:37;;;;;;;9.95;3.63;;;;;;;23.13;53.44;100919.13;5026965;28;20142;-35
2023/07/31 02:22:03;;;;;;;6.35;3.17;;;;;;;23.12;53.71;100912.88;5025418;28;20111;-35
2023/07/31 02:24:31;;;;;;;6.72;3.22;;;;;;;23.12;53.36;100912.88;5024847;28;20118;-35
2023/07/31 02:26:58;;;;;;;8.93;3.85;;;;;;;23.12;53.43;100917.47;5021815;28;20048;-36
2023/07/31 02:29:25;;;;;;;8.15;3.53;;;;;;;23.12;53.64;100923.69;5021706;28;20106;-35
2023/07/31 02:31:51;;;;;;;7.28;3.72;;;;;;;23.11;53.42;100927.41;5024747;28;20132;-35
2023/07/31 02:34:18;;;;;;;9.45;3.75;;;;;;;23.11;53.60;100930.09;5025300;28;20054;-35
2023/07/31 02:36:44;;;;;;;9.68;3.90;;;;;;;23.13;53.58;100932.66;5025414;28;20049;-35
2023/07/31 02:39:11;;;;;;;7.60;3.30;;;;;;;23.11;53.81;100918.47;5026311;28;20860;-35
2023/07/31 02:41:38;;;;;;;9.32;3.95;;;;;;;23.11;53.53;100922.00;5023651;28;20060;-35
2023/07/31 02:44:04;;;;;;;8.60;3.63;;;;;;;23.11;53.75;100919.28;5023948;28;20682;-35
2023/07/31 02:46:31;;;;;;;9.38;3.92;;;;;;;23.11;53.67;100918.47;5024115;28;20037;-35
2023/07/31 02:48:58;;;;;;;9.77;4.03;;;;;;;23.10;53.68;100906.81;5028043;28;20562;-35
2023/07/31 02:51:24;;;;;;;8.38;3.42;;;;;;;23.10;53.74;100901.41;5034615;28;20053;-35
2023/07/31 02:53:51;;;;;;;9.77;3.85;;;;;;;23.11;53.76;100899.53;5033404;28;20429;-35
2023/07/31 02:56:17;;;;;;;9.65;3.60;;;;;;;23.11;53.71;100913.03;5033558;28;20049;-36
2023/07/31 02:58:44;;;;;;;10.32;4.28;;;;;;;23.10;53.65;100908.66;5033788;28;20056;-35
2023/07/31 03:01:11;;;;;;;7.80;3.58;;;;;;;23.11;53.98;100900.38;5036838;28;20045;-35
2023/07/31 03:03:37;;;;;;;10.65;4.18;;;;;;;23.10;53.67;100905.97;5029339;28;20433;-35
2023/07/31 03:06:04;;;;;;;7.97;3.47;;;;;;;23.10;53.99;100901.41;5034369;28;20048;-35
2023/07/31 03:08:31;;;;;;;9.27;3.88;;;;;;;23.10;53.98;100904.09;5033750;28;20434;-35
2023/07/31 03:10:57;;;;;;;8.50;3.47;;;;;;;23.10;53.82;100900.56;5033114;28;20092;-36
2023/07/31 03:13:24;;;;;;;9.43;4.07;;;;;;;23.09;54.04;100897.03;5033154;28;20045;-35
2023/07/31 03:15:51;;;;;;;9.77;3.83;;;;;;;23.10;54.02;100900.56;5034334;28;20131;-35
2023/07/31 03:18:17;;;;;;;8.95;4.18;;;;;;;23.09;53.28;100893.47;5031724;28;20143;-35
2023/07/31 03:20:44;;;;;;;9.38;3.78;;;;;;;23.09;53.75;100907.00;5032451;28;20131;-35
2023/07/31 03:23:10;;;;;;;9.90;4.32;;;;;;;23.08;53.94;100898.06;5034624;28;20495;-36
2023/07/31 03:25:37;;;;;;;10.52;3.80;;;;;;;23.08;54.35;100908.88;5034920;28;20045;-38
2023/07/31 03:28:04;;;;;;;8.63;3.75;;;;;;;23.08;53.50;100903.47;5032731;28;20525;-35
2023/07/31 03:30:30;;;;;;;7.18;4.07;;;;;;;23.08;53.92;100891.81;5032706;28;20103;-35
2023/07/31 03:32:57;;;;;;;9.25;3.53;;;;;;;23.07;53.43;100888.25;5030718;28;20073;-36
2023/07/31 03:35:24;;;;;;;7.00;3.42;;;;;;;23.07;53.90;100890.94;5031391;28;20045;-35
2023/07/31 03:37:50;;;;;;;8.75;3.42;;;;;;;23.06;53.93;100894.69;5035372;28;20073;-36
2023/07/31 03:40:17;;;;;;;8.05;3.88;;;;;;;23.07;53.43;100887.41;5033078;28;20049;-36
2023/07/31 03:42:43;;;;;;;10.43;3.92;;;;;;;23.05;53.91;100884.91;5031646;28;20045;-35
2023/07/31 03:45:10;;;;;;;9.30;3.67;;;;;;;23.05;54.25;100879.50;5032877;28;20128;-35
2023/07/31 03:47:36;;;;;;;9.20;3.72;;;;;;;23.05;53.64;100873.25;5030491;28;20056;-35
2023/07/31 03:50:03;;;;;;;13.30;4.35;;;;;;;23.05;53.88;100884.06;5030480;28;20055;-36
2023/07/31 03:52:30;;;;;;;12.30;4.53;;;;;;;23.06;53.89;100877.63;5030685;28;20423;-35
2023/07/31 03:54:57;;;;;;;10.90;4.13;;;;;;;23.05;53.44;100874.09;5030810;28;20050;-36
2023/07/31 03:57:23;;;;;;;10.05;3.83;;;;;;;23.04;53.44;100869.72;5027011;28;20132;-35
2023/07/31 03:59:50;;;;;;;8.25;3.63;;;;;;;23.03;53.81;100870.72;5028712;28;20053;-35
2023/07/31 04:02:18;;;;;;;9.43;4.47;;;;;;;23.03;53.46;100861.78;5027944;28;20057;-35
2023/07/31 04:04:45;;;;;;;9.52;3.83;;;;;;;23.02;53.65;100852.81;5028794;28;20934;-35
2023/07/31 04:07:11;;;;;;;8.85;3.65;;;;;;;23.00;53.73;100854.88;5028216;28;20052;-36
2023/07/31 04:09:38;;;;;;;10.77;4.25;;;;;;;23.01;53.68;100848.44;5026445;28;20049;-36
2023/07/31 04:12:05;;;;;;;9.65;3.80;;;;;;;23.01;53.18;100853.84;5029530;28;20080;-35
2023/07/31 04:14:31;;;;;;;9.32;3.95;;;;;;;23.00;53.39;100843.25;5032250;28;20045;-36
2023/07/31 04:16:58;;;;;;;10.55;4.15;;;;;;;22.99;53.92;100838.84;5023716;28;20103;-35
2023/07/31 04:19:25;;;;;;;8.82;3.60;;;;;;;22.98;53.59;100834.47;5029204;28;20345;-35
2023/07/31 04:21:51;;;;;;;11.00;4.18;;;;;;;22.96;53.64;100834.66;5030074;28;20136;-35
2023/07/31 04:24:24;;;;;;;9.18;3.70;;;;;;;22.96;53.92;100834.66;5040855;28;20084;-35
2023/07/31 04:26:52;;;;;;;9.73;3.63;;;;;;;22.96;53.51;100840.06;5032608;28;20049;-35
2023/07/31 04:29:19;;;;;;;11.80;4.13;;;;;;;22.95;53.79;100840.25;5032465;28;20050;-36
2023/07/31 04:31:47;;;;;;;10.93;4.15;;;;;;;22.93;53.67;100837.72;5032082;28;20096;-35
2023/07/31 04:34:14;;;;;;;10.70;4.15;;;;;;;22.92;53.69;100841.47;5032271;28;20049;-34
2023/07/31 04:36:40;;;;;;;11.35;4.00;;;;;;;22.92;53.39;100837.94;5034764;28;20084;-35
2023/07/31 04:39:07;;;;;;;10.98;4.22;;;;;;;22.90;53.83;100844.34;5034870;28;20053;-35
2023/07/31 04:41:34;;;;;;;10.82;4.72;;;;;;;22.89;54.06;100837.22;5033378;28;20524;-35
2023/07/31 04:44:01;;;;;;;12.02;4.38;;;;;;;22.89;53.91;100833.69;5033890;28;20389;-35
2023/07/31 04:46:28;;;;;;;12.77;4.68;;;;;;;22.88;53.90;100830.16;5031243;28;20047;-35
2023/07/31 04:48:54;;;;;;;10.25;3.92;;;;;;;22.88;53.66;100826.63;5033260;28;20135;-35
2023/07/31 04:51:21;;;;;;;8.45;3.88;;;;;;;22.86;53.45;100825.94;5036929;28;20128;-35
2023/07/31 04:53:47;;;;;;;11.60;4.18;;;;;;;22.84;53.76;100823.44;5030583;28;20139;-36
2023/07/31 04:56:15;;;;;;;10.07;4.20;;;;;;;22.83;53.49;100819.03;5032830;28;20176;-36
2023/07/31 04:58:42;;;;;;;9.48;3.65;;;;;;;22.82;53.76;100809.25;5034059;28;20384;-34
2023/07/31 05:01:08;;;;;;;12.43;4.43;;;;;;;22.82;53.90;100816.53;5035001;28;20129;-35
2023/07/31 05:03:35;;;;;;;8.57;3.70;;;;;;;22.82;53.64;100819.25;5030476;28;20093;-36
2023/07/31 05:06:01;;;;;;;7.35;3.53;;;;;;;22.80;53.83;100815.91;5031788;28;20056;-34
2023/07/31 05:08:28;;;;;;;10.43;4.82;;;;;;;22.79;53.90;100814.19;5033975;28;20333;-35
2023/07/31 05:10:55;;;;;;;8.50;3.90;;;;;;;22.79;54.05;100811.50;5033445;28;20049;-35
2023/07/31 05:13:21;;;;;;;9.02;3.42;;;;;;;22.77;54.02;100810.84;5031697;28;20041;-35
2023/07/31 05:15:49;;;;;;;9.20;4.13;;;;;;;22.76;54.01;100806.50;5033222;28;20385;-34
2023/07/31 05:18:16;;;;;;;10.23;4.00;;;;;;;22.75;53.96;100800.22;5029114;28;20081;-35
2023/07/31 05:20:42;;;;;;;7.55;3.25;;;;;;;22.74;54.08;100801.25;5031900;28;20047;-36
2023/07/31 05:23:09;;;;;;;7.20;3.72;;;;;;;22.73;54.47;100794.19;5032482;28;20089;-35
2023/07/31 05:25:35;;;;;;;8.80;3.75;;;;;;;22.72;54.46;100795.22;5036652;28;20148;-35
2023/07/31 05:28:02;;;;;;;6.88;3.70;;;;;;;22.72;54.29;100791.66;5038412;28;20132;-35
2023/07/31 05:30:32;;;;;;;7.80;3.55;;;;;;;22.71;54.12;100792.66;5035290;28;20059;-36
2023/07/31 05:32:58;;;;;;;7.85;3.20;;;;;;;22.70;54.35;100780.19;5036705;28;20072;-35
2023/07/31 05:35:25;;;;;;;7.32;3.35;;;;;;;22.69;54.30;100775.81;5038187;28;20057;-35
2023/07/31 05:37:51;;;;;;;6.40;3.00;;;;;;;22.67;54.11;100784.97;5033774;28;20076;-35
2023/07/31 05:40:18;;;;;;;5.38;3.40;;;;;;;22.67;54.67;100776.00;5042534;28;20072;-35
2023/07/31 05:42:45;;;;;;;7.28;3.53;;;;;;;22.67;54.57;100770.59;5038521;28;20057;-35
2023/07/31 05:45:13;;;;;;;6.35;2.88;;;;;;;22.67;54.18;100765.19;5038785;28;20045;-35
2023/07/31 05:47:40;;;;;;;5.68;3.20;;;;;;;22.66;54.52;100760.81;5028100;28;20045;-35
2023/07/31 05:50:08;;;;;;;8.40;3.42;;;;;;;22.66;54.84;100767.03;5034288;28;20052;-34
2023/07/31 05:52:34;;;;;;;6.47;3.20;;;;;;;22.64;54.77;100758.31;5031149;28;20080;-35
2023/07/31 05:55:01;;;;;;;6.50;2.90;;;;;;;22.65;54.24;100759.97;5034182;28;20065;-34
2023/07/31 05:57:28;;;;;;;7.40;2.83;;;;;;;22.65;54.42;100756.44;5036513;28;20069;-35
2023/07/31 05:59:54;;;;;;;6.03;2.70;;;;;;;22.65;54.75;100753.75;5023820;28;20041;-34
2023/07/31 06:02:21;;;;;;;6.85;2.92;;;;;;;22.64;54.44;100750.19;5028508;28;20107;-35
2023/07/31 06:04:47;;;;;;;8.80;3.83;;;;;;;22.64;54.35;100752.06;5035226;28;20057;-34
2023/07/31 06:07:14;;;;;;;5.72;2.78;;;;;;;22.62;54.54;100749.53;5031394;28;20381;-34
2023/07/31 06:09:41;;;;;;;5.63;2.92;;;;;;;22.62;54.46;100749.53;5034786;28;20080;-34
2023/07/31 06:12:08;;;;;;;4.80;3.00;;;;;;;22.62;54.82;100746.00;5032896;28;20057;-35
2023/07/31 06:14:35;;;;;;;3.47;2.30;;;;;;;22.62;54.62;100735.19;5029212;28;20045;-35
2023/07/31 06:17:01;;;;;;;6.15;3.10;;;;;;;22.62;54.60;100743.28;5034864;28;20041;-34
2023/07/31 06:19:28;;;;;;;5.70;2.90;;;;;;;22.61;54.39;100737.06;5035427;28;20489;-34
2023/07/31 06:21:54;;;;;;;5.55;2.72;;;;;;;22.62;54.72;100736.03;5035637;28;20133;-34
2023/07/31 06:24:22;;;;;;;4.43;2.38;;;;;;;22.62;54.86;100743.28;5032449;28;20119;-35
2023/07/31 06:26:48;;;;;;;5.63;2.35;;;;;;;22.62;54.97;100736.03;5029503;28;20053;-35
2023/07/31 06:29:15;;;;;;;5.63;2.70;;;;;;;22.63;54.62;100728.75;5034363;28;20056;-35
2023/07/31 06:31:42;;;;;;;5.90;2.65;;;;;;;22.63;54.72;100726.06;5023944;28;20049;-35
2023/07/31 06:34:08;;;;;;;4.75;2.33;;;;;;;22.63;54.71;100729.63;5033100;28;20459;-35
2023/07/31 06:36:35;;;;;;;4.72;3.13;;;;;;;22.65;54.62;100732.13;5031808;28;20390;-34
2023/07/31 06:39:02;;;;;;;6.20;2.70;;;;;;;22.63;54.42;100716.13;5032173;28;20080;-34
2023/07/31 06:41:28;;;;;;;3.85;1.90;;;;;;;22.63;54.92;100723.34;5034205;28;20081;-34
2023/07/31 06:43:55;;;;;;;4.40;2.30;;;;;;;22.62;54.59;100714.41;5031043;28;20106;-34
2023/07/31 06:46:21;;;;;;;3.65;2.20;;;;;;;22.62;54.71;100716.28;5035130;28;20061;-34
2023/07/31 06:48:48;;;;;;;4.40;2.40;;;;;;;22.62;54.94;100713.59;5031025;28;20073;-35
2023/07/31 06:51:15;;;;;;;4.78;1.80;;;;;;;22.62;54.50;100716.28;5035309;28;20045;-34
2023/07/31 06:53:42;;;;;;;3.70;1.90;;;;;;;22.61;54.77;100703.81;5034147;28;20053;-35
2023/07/31 06:56:09;;;;;;;3.78;2.00;;;;;;;22.62;54.82;100702.78;5038732;28;20175;-35
2023/07/31 06:58:35;;;;;;;4.63;2.10;;;;;;;22.62;54.88;100698.22;5033889;28;20049;-34
2023/07/31 07:01:02;;;;;;;4.43;2.22;;;;;;;22.61;54.82;100701.09;5036293;28;20436;-35
2023/07/31 07:03:29;;;;;;;3.13;1.90;;;;;;;22.61;54.69;100699.25;5029780;28;20062;-36
2023/07/31 07:05:55;;;;;;;3.28;2.28;;;;;;;22.62;55.03;100706.31;5032561;28;20568;-34
2023/07/31 07:08:23;;;;;;;4.20;1.70;;;;;;;22.62;54.77;100708.19;5037683;28;20049;-38
2023/07/31 07:10:53;;;;;;;4.78;1.85;;;;;;;22.63;55.00;100697.19;5039498;28;20052;-35
2023/07/31 07:13:21;;;;;;;3.10;1.75;;;;;;;22.63;55.10;100718.81;5037535;28;20091;-34
2023/07/31 07:15:51;;;;;;;3.55;1.90;;;;;;;22.63;55.19;100694.50;5035607;28;20053;-34
2023/07/31 07:18:18;;;;;;;3.58;1.85;;;;;;;22.63;55.13;100702.59;5032041;28;20103;-34
2023/07/31 07:20:53;;;;;;;3.45;1.63;;;;;;;22.63;55.36;100705.31;5034493;28;20443;-35
2023/07/31 07:23:20;;;;;;;2.55;1.55;;;;;;;22.64;54.91;100704.28;5037378;28;20053;-34
2023/07/31 07:25:47;;;;;;;5.38;2.20;;;;;;;22.64;55.03;100698.03;5037495;28;20053;-34
2023/07/31 07:28:14;;;;;;;4.47;2.20;;;;;;;22.63;55.20;100697.19;5036070;28;20050;-35
2023/07/31 07:30:41;;;;;;;4.35;1.73;;;;;;;22.64;55.20;100708.84;5037815;28;20049;-35
2023/07/31 07:33:07;;;;;;;5.53;1.95;;;;;;;22.64;55.24;100701.56;5035051;28;21740;-35
2023/07/31 07:35:35;;;;;;;2.13;1.42;;;;;;;22.64;55.31;100701.56;5033766;28;20147;-34
2023/07/31 07:38:02;;;;;;;3.28;1.55;;;;;;;22.65;55.11;100699.72;5034956;28;20119;-35
2023/07/31 07:40:29;;;;;;;2.13;1.42;;;;;;;22.65;55.26;100702.41;5032741;28;20087;-35
2023/07/31 07:42:56;;;;;;;4.32;1.65;;;;;;;22.66;54.84;100706.78;5030508;28;20483;-34
2023/07/31 07:45:22;;;;;;;2.67;1.52;;;;;;;22.65;55.22;100700.53;5039831;28;20084;-34
2023/07/31 07:47:49;;;;;;;2.60;1.60;;;;;;;22.65;55.34;100703.25;5031195;28;20147;-35
2023/07/31 07:50:15;;;;;;;3.03;1.23;;;;;;;22.67;55.41;100700.34;5037284;28;20045;-34
2023/07/31 07:52:42;;;;;;;2.13;1.48;;;;;;;22.66;55.02;100699.50;5033933;28;20069;-34
2023/07/31 07:55:09;;;;;;;2.17;1.27;;;;;;;22.67;55.24;100697.63;5036368;28;20399;-34
2023/07/31 07:57:35;;;;;;;2.55;1.30;;;;;;;22.68;55.12;100693.94;5034805;28;20451;-34
2023/07/31 08:00:02;;;;;;;2.13;1.30;;;;;;;22.68;54.90;100693.94;5035640;28;20106;-34
2023/07/31 08:02:29;;;;;;;2.00;1.10;;;;;;;22.69;55.16;100689.38;5032221;28;20105;-35
2023/07/31 08:04:56;;;;;;;1.92;1.20;;;;;;;22.69;55.26;100692.91;5032010;28;20052;-35
2023/07/31 08:07:22;;;;;;;2.03;1.42;;;;;;;22.69;55.15;100682.09;5031895;28;20122;-34
2023/07/31 08:09:49;;;;;;;1.95;1.10;;;;;;;22.70;55.30;100680.22;5033927;28;20135;-35
2023/07/31 08:12:16;;;;;;;2.88;1.20;;;;;;;22.70;55.15;100672.94;5033020;28;20056;-36
2023/07/31 08:14:42;;;;;;;1.38;0.80;;;;;;;22.71;55.40;100671.91;5033185;28;20107;-35
2023/07/31 08:17:09;;;;;;;2.22;1.00;;;;;;;22.72;55.15;100672.78;5031642;28;20049;-34
2023/07/31 08:19:36;;;;;;;1.90;1.13;;;;;;;22.73;55.20;100678.00;5035795;28;20048;-36
2023/07/31 08:22:02;;;;;;;1.77;1.17;;;;;;;22.73;55.12;100666.34;5038311;28;20059;-34
2023/07/31 08:24:29;;;;;;;1.70;1.00;;;;;;;22.75;55.25;100675.09;5033077;28;20432;-35
2023/07/31 08:26:56;;;;;;;2.40;1.20;;;;;;;22.76;55.23;100664.09;5028523;28;20053;-34
2023/07/31 08:29:22;;;;;;;1.15;0.85;;;;;;;22.77;55.33;100670.34;5032316;28;20052;-35
2023/07/31 08:31:49;;;;;;;1.33;0.82;;;;;;;22.77;55.35;100670.34;5029732;28;20115;-34
2023/07/31 08:34:15;;;;;;;1.02;0.90;;;;;;;22.78;55.34;100672.84;5025633;28;20045;-34
2023/07/31 08:36:42;;;;;;;2.50;1.10;;;;;;;22.78;55.46;100672.84;5028602;28;20429;-35
2023/07/31 08:39:09;;;;;;;1.58;0.93;;;;;;;22.79;55.13;100669.09;5031602;28;20042;-35
2023/07/31 08:41:41;;;;;;;2.30;1.23;;;;;;;22.79;55.33;100665.56;5029573;28;20388;-35
2023/07/31 08:44:10;;;;;;;1.88;1.10;;;;;;;22.79;55.26;100662.88;5029513;28;20092;-35
2023/07/31 08:46:38;;;;;;;1.45;0.80;;;;;;;22.78;55.31;100670.16;5028208;28;20149;-35
2023/07/31 08:49:06;;;;;;;1.55;1.10;;;;;;;22.79;55.24;100658.28;5029253;28;20057;-34
2023/07/31 08:51:34;;;;;;;1.52;0.80;;;;;;;22.79;55.58;100649.34;5032337;28;20080;-35
2023/07/31 08:54:01;;;;;;;1.35;1.00;;;;;;;22.79;55.28;100666.41;5035535;28;20408;-35
2023/07/31 08:56:28;;;;;;;0.90;0.70;;;;;;;22.80;55.50;100667.28;5033272;28;20053;-35
2023/07/31 08:58:56;;;;;;;1.25;0.80;;;;;;;22.80;55.61;100653.75;5026912;28;20851;-35
2023/07/31 09:01:23;;;;;;;1.48;0.70;;;;;;;22.81;55.41;100652.72;5034097;28;20095;-34
2023/07/31 09:03:51;;;;;;;1.15;0.88;;;;;;;22.82;55.19;100665.19;5032608;28;20088;-34
2023/07/31 09:06:20;;;;;;;2.17;1.00;;;;;;;22.82;55.32;100668.75;5035089;28;20045;-35
2023/07/31 09:08:47;;;;;;;1.10;0.80;;;;;;;22.82;55.47;100667.91;5033578;28;20053;-35
2023/07/31 09:11:14;;;;;;;1.77;0.93;;;;;;;22.82;55.49;100667.91;5028531;28;20107;-35
2023/07/31 09:13:41;;;;;;;0.95;0.77;;;;;;;22.82;55.43;100676.00;5032636;28;20061;-35
2023/07/31 09:16:09;;;;;;;1.25;0.73;;;;;;;22.82;55.37;100660.63;5031005;28;20089;-34
2023/07/31 09:18:56;;;;;;;0.70;0.63;;;;;;;22.82;55.65;100662.50;5028745;28;20089;-35
2023/07/31 09:21:24;;;;;;;1.23;0.75;;;;;;;22.83;55.41;100658.75;5030934;28;20049;-35
2023/07/31 09:23:54;;;;;;;1.30;0.70;;;;;;;22.83;55.53;100651.50;5032821;28;20056;-34
2023/07/31 09:26:32;;;;;;;2.55;0.80;;;;;;;22.83;55.75;100648.78;5033070;28;20538;-34
2023/07/31 09:28:59;;;;;;;0.85;0.70;;;;;;;22.85;55.87;100657.56;5030134;28;20326;-34
2023/07/31 09:31:53;;;;;;;1.00;0.65;;;;;;;22.83;55.72;100653.34;5031725;28;20053;-35
2023/07/31 09:34:28;;;;;;;1.40;0.60;;;;;;;22.86;55.34;100653.81;5029248;28;20077;-36
2023/07/31 09:36:56;;;;;;;0.68;0.47;;;;;;;22.86;55.67;100661.09;5032423;28;20099;-37
2023/07/31 09:39:23;;;;;;;0.80;0.50;;;;;;;22.86;55.96;100653.81;5030015;28;20541;-34
2023/07/31 09:41:56;;;;;;;0.65;0.50;;;;;;;22.86;55.59;100651.13;5030159;28;20120;-35
2023/07/31 09:44:39;;;;;;;0.85;0.55;;;;;;;22.86;55.69;100658.38;5036722;28;20045;-35
2023/07/31 09:47:06;;;;;;;1.55;0.65;;;;;;;22.87;55.56;100652.81;5030257;28;20472;-35
2023/07/31 09:49:33;;;;;;;0.57;0.38;;;;;;;22.88;55.46;100659.88;5030916;28;20046;-34
2023/07/31 09:52:00;;;;;;;1.20;0.68;;;;;;;22.89;55.95;100649.91;5035762;28;20107;-34
2023/07/31 09:54:26;;;;;;;0.45;0.45;;;;;;;22.88;55.84;100653.66;5039033;28;20049;-38
2023/07/31 09:56:54;;;;;;;0.57;0.50;;;;;;;22.88;55.66;100649.06;5040953;28;20128;-34
2023/07/31 09:59:21;;;;;;;0.60;0.55;;;;;;;22.88;55.92;100646.38;5044913;28;20057;-34
2023/07/31 10:01:51;;;;;;;0.70;0.40;;;;;;;22.88;55.65;100645.53;5034580;28;20493;-37
2023/07/31 10:04:25;;;;;;;1.92;0.90;;;;;;;22.88;55.87;100643.66;5034421;28;20049;-35
2023/07/31 10:06:53;;;;;;;1.30;0.60;;;;;;;22.90;55.58;100648.88;5039623;28;20417;-34
2023/07/31 10:09:24;;;;;;;2.25;1.02;;;;;;;22.90;56.04;100648.88;5041242;28;20058;-36
2023/07/31 10:12:00;;;;;;;0.70;0.50;;;;;;;22.90;55.82;100648.88;5039549;28;20095;-34
2023/07/31 10:14:28;;;;;;;3.90;1.02;;;;;;;22.91;55.94;100642.47;5044775;28;20108;-34
2023/07/31 10:16:57;;;;;;;1.48;0.77;;;;;;;22.91;55.55;100650.56;5042610;28;20417;-35
2023/07/31 10:19:24;;;;;;;1.33;0.73;;;;;;;22.91;55.87;100650.56;5044022;28;20044;-35
2023/07/31 10:21:51;;;;;;;1.77;0.70;;;;;;;22.93;56.08;100648.53;5037728;28;20384;-34
2023/07/31 10:24:18;;;;;;;1.17;0.80;;;;;;;22.95;55.83;100651.03;5035739;28;20143;-34
2023/07/31 10:26:48;;;;;;;1.98;0.90;;;;;;;22.96;55.66;100650.84;5034009;28;20053;-35
2023/07/31 10:29:17;;;;;;;1.70;0.95;;;;;;;22.96;55.84;100642.75;5034772;28;20437;-34
2023/07/31 10:31:46;;;;;;;1.88;0.95;;;;;;;22.98;55.66;100648.78;5032011;28;20057;-34
2023/07/31 10:34:14;;;;;;;1.52;0.63;;;;;;;22.97;55.80;100649.81;5032916;28;20322;-35
2023/07/31 10:36:41;;;;;;;2.90;0.80;;;;;;;22.98;55.92;100640.69;5036968;28;20136;-36
2023/07/31 10:39:34;;;;;;;2.05;0.80;;;;;;;22.99;56.17;100646.91;5035531;28;20445;-37
2023/07/31 10:42:12;;;;;;;4.00;1.08;;;;;;;23.02;56.56;100638.44;5031507;28;20054;-37
2023/07/31 10:44:45;;;;;;;2.05;1.13;;;;;;;23.02;56.07;100639.25;5034912;28;20088;-37
2023/07/31 10:47:14;;;;;;;2.33;1.00;;;;;;;23.04;55.89;100630.97;5036733;28;20051;-37
2023/07/31 10:49:45;;;;;;;2.45;1.00;;;;;;;23.05;55.99;100641.59;5036202;28;20049;-37
2023/07/31 10:52:13;;;;;;;1.00;0.60;;;;;;;23.06;56.07;100637.84;5032695;28;20429;-35
2023/07/31 10:54:40;;;;;;;1.55;0.80;;;;;;;23.07;56.00;100634.13;5035803;28;20076;-35
2023/07/31 10:57:19;;;;;;;1.92;1.00;;;;;;;23.08;56.16;100634.97;5034944;28;20052;-35
2023/07/31 10:59:47;;;;;;;1.77;0.82;;;;;;;23.09;55.70;100629.38;5032985;28;20391;-35
2023/07/31 11:02:29;;;;;;;2.20;1.05;;;;;;;23.09;55.76;100637.47;5031360;28;20064;-35
2023/07/31 11:05:07;;;;;;;1.30;0.85;;;;;;;23.11;55.61;100642.69;5033631;28;20053;-34
2023/07/31 11:07:47;;;;;;;3.92;0.95;;;;;;;23.09;55.69;100648.28;5032613;28;20052;-34
2023/07/31 11:10:18;;;;;;;1.88;0.93;;;;;;;23.10;55.72;100641.84;5036027;28;20103;-34
2023/07/31 11:12:46;;;;;;;2.35;1.02;;;;;;;23.10;55.86;100643.72;5037241;28;20050;-36
2023/07/31 11:15:13;;;;;;;2.08;0.98;;;;;;;23.11;55.95;100632.69;5039381;28;20045;-35
2023/07/31 11:17:40;;;;;;;1.92;0.98;;;;;;;23.11;55.82;100631.88;5039407;28;20107;-35
2023/07/31 11:20:07;;;;;;;2.67;1.23;;;;;;;23.12;56.07;100634.41;5035710;28;20349;-35
2023/07/31 11:22:36;;;;;;;2.08;0.80;;;;;;;23.12;55.89;100630.84;5036077;28;20058;-35
2023/07/31 11:25:05;;;;;;;2.70;0.98;;;;;;;23.13;56.06;100627.13;5037979;28;20052;-34
2023/07/31 11:27:39;;;;;;;3.67;1.25;;;;;;;23.12;55.96;100631.69;5037400;28;20397;-35